createdAt,value
2023-02-18T00:00:37.830Z,0.00
2023-02-18T00:01:37.823Z,0.00
2023-02-18T00:02:37.855Z,0.00
2023-02-18T00:03:37.833Z,0.00
2023-02-18T00:04:37.777Z,0.00
2023-02-18T00:05:37.781Z,0.00
2023-02-18T00:06:37.762Z,0.00
2023-02-18T00:07:37.748Z,0.00
2023-02-18T00:08:37.731Z,0.00
2023-02-18T00:09:37.726Z,0.00
2023-02-18T00:10:37.720Z,0.00
2023-02-18T00:11:37.706Z,0.00
2023-02-18T00:12:37.688Z,0.00
2023-02-18T00:13:37.680Z,0.00
2023-02-18T00:14:37.662Z,0.00
2023-02-18T00:15:37.712Z,0.00
2023-02-18T00:16:37.640Z,0.00
2023-02-18T00:17:37.651Z,0.00
2023-02-18T00:18:37.625Z,0.00
2023-02-18T00:19:37.615Z,0.00
2023-02-18T00:20:37.609Z,0.00
2023-02-18T00:21:37.589Z,0.00
2023-02-18T00:22:37.580Z,0.00
2023-02-18T00:23:37.577Z,0.00
2023-02-18T00:24:37.555Z,0.00
2023-02-18T00:25:37.561Z,0.00
2023-02-18T00:26:37.541Z,0.00
2023-02-18T00:27:37.533Z,0.00
2023-02-18T00:28:37.509Z,0.00
2023-02-18T00:29:37.509Z,0.00
2023-02-18T00:30:37.500Z,0.00
2023-02-18T00:31:37.590Z,0.00
2023-02-18T00:32:37.471Z,0.00
2023-02-18T00:33:37.462Z,0.00
2023-02-18T00:34:37.485Z,0.00
2023-02-18T00:35:37.442Z,0.00
2023-02-18T00:36:37.450Z,0.00
2023-02-18T00:37:37.448Z,0.00
2023-02-18T00:38:37.399Z,0.00
2023-02-18T00:39:37.410Z,0.00
2023-02-18T00:40:37.390Z,0.00
2023-02-18T00:41:37.376Z,0.00
2023-02-18T00:42:37.357Z,0.00
2023-02-18T00:43:37.373Z,0.00
2023-02-18T00:44:37.331Z,0.00
2023-02-18T00:45:37.337Z,0.00
2023-02-18T00:46:37.347Z,0.00
2023-02-18T00:47:37.304Z,0.00
2023-02-18T00:48:37.288Z,0.00
2023-02-18T00:49:37.282Z,0.00
2023-02-18T00:50:37.309Z,0.00
2023-02-18T00:51:37.260Z,0.00
2023-02-18T00:52:37.244Z,0.00
2023-02-18T00:53:37.247Z,0.00
2023-02-18T00:54:38.247Z,0.00
2023-02-18T00:55:37.227Z,0.00
2023-02-18T00:56:37.202Z,0.00
2023-02-18T00:57:37.193Z,0.00
2023-02-18T00:58:37.177Z,0.00
2023-02-18T00:59:37.177Z,0.00
2023-02-18T01:00:37.175Z,0.00
2023-02-18T01:01:37.200Z,0.00
2023-02-18T01:02:37.132Z,0.00
2023-02-18T01:03:37.132Z,0.00
2023-02-18T01:04:37.139Z,0.00
2023-02-18T01:05:37.113Z,0.00
2023-02-18T01:06:37.102Z,0.00
2023-02-18T01:07:37.083Z,0.00
2023-02-18T01:08:37.099Z,0.00
2023-02-18T01:09:37.064Z,0.00
2023-02-18T01:10:37.048Z,0.00
2023-02-18T01:11:37.049Z,0.00
2023-02-18T01:12:37.028Z,0.00
2023-02-18T01:13:37.021Z,0.00
2023-02-18T01:14:37.007Z,0.00
2023-02-18T01:15:36.998Z,0.00
2023-02-18T01:16:36.993Z,0.00
2023-02-18T01:17:36.976Z,0.00
2023-02-18T01:18:36.973Z,0.00
2023-02-18T01:19:36.953Z,0.00
2023-02-18T01:20:36.954Z,0.00
2023-02-18T01:21:36.945Z,0.00
2023-02-18T01:22:36.927Z,0.00
2023-02-18T01:23:36.912Z,0.00
2023-02-18T01:24:36.894Z,0.00
2023-02-18T01:25:36.889Z,0.00
2023-02-18T01:26:36.894Z,0.00
2023-02-18T01:27:36.866Z,0.00
2023-02-18T01:28:36.856Z,0.00
2023-02-18T01:29:36.861Z,0.00
2023-02-18T01:30:36.829Z,0.00
2023-02-18T01:31:36.901Z,0.00
2023-02-18T01:32:36.809Z,0.00
2023-02-18T01:33:36.796Z,0.00
2023-02-18T01:34:36.794Z,0.00
2023-02-18T01:35:36.773Z,0.00
2023-02-18T01:36:36.786Z,0.00
2023-02-18T01:37:36.754Z,0.00
2023-02-18T01:38:36.746Z,0.00
2023-02-18T01:39:36.733Z,0.00
2023-02-18T01:40:36.720Z,0.00
2023-02-18T01:41:36.714Z,0.00
2023-02-18T01:42:36.698Z,0.00
2023-02-18T01:43:36.684Z,0.00
2023-02-18T01:44:36.673Z,0.00
2023-02-18T01:45:36.664Z,0.00
2023-02-18T01:46:36.711Z,0.00
2023-02-18T01:47:36.641Z,0.00
2023-02-18T01:48:39.090Z,0.00
2023-02-18T01:49:36.612Z,0.00
2023-02-18T01:50:36.605Z,0.00
2023-02-18T01:51:36.599Z,0.00
2023-02-18T01:52:36.594Z,0.00
2023-02-18T01:53:36.566Z,0.00
2023-02-18T01:54:36.564Z,0.00
2023-02-18T01:55:36.545Z,0.00
2023-02-18T01:56:36.550Z,0.00
2023-02-18T01:57:36.537Z,0.00
2023-02-18T01:58:36.532Z,0.00
2023-02-18T01:59:36.514Z,0.00
2023-02-18T02:00:36.511Z,0.00
2023-02-18T02:01:36.507Z,0.00
2023-02-18T02:02:36.470Z,0.00
2023-02-18T02:03:36.458Z,0.00
2023-02-18T02:04:36.454Z,0.00
2023-02-18T02:05:36.480Z,0.00
2023-02-18T02:06:36.571Z,0.00
2023-02-18T02:07:36.412Z,0.00
2023-02-18T02:08:36.405Z,0.00
2023-02-18T02:09:36.394Z,0.00
2023-02-18T02:10:36.385Z,0.00
2023-02-18T02:11:36.382Z,0.00
2023-02-18T02:12:36.363Z,0.00
2023-02-18T02:13:36.349Z,0.00
2023-02-18T02:14:36.340Z,0.00
2023-02-18T02:15:36.328Z,0.00
2023-02-18T02:16:36.348Z,0.00
2023-02-18T02:17:36.310Z,0.00
2023-02-18T02:18:36.297Z,0.00
2023-02-18T02:19:36.281Z,0.00
2023-02-18T02:20:36.275Z,0.00
2023-02-18T02:21:36.278Z,0.00
2023-02-18T02:22:36.254Z,0.00
2023-02-18T02:23:36.240Z,0.00
2023-02-18T02:24:36.231Z,0.00
2023-02-18T02:25:36.215Z,0.00
2023-02-18T02:26:36.225Z,0.00
2023-02-18T02:27:36.197Z,0.00
2023-02-18T02:28:36.191Z,0.00
2023-02-18T02:29:36.173Z,0.00
2023-02-18T02:30:36.238Z,0.00
2023-02-18T02:31:36.187Z,0.00
2023-02-18T02:32:36.149Z,0.00
2023-02-18T02:33:36.131Z,0.00
2023-02-18T02:34:36.125Z,0.00
2023-02-18T02:35:36.107Z,0.00
2023-02-18T02:36:36.109Z,0.00
2023-02-18T02:37:36.086Z,0.00
2023-02-18T02:38:36.085Z,0.00
2023-02-18T02:39:36.060Z,0.00
2023-02-18T02:40:36.057Z,0.00
2023-02-18T02:41:36.050Z,0.00
2023-02-18T02:42:36.036Z,0.00
2023-02-18T02:43:36.020Z,0.00
2023-02-18T02:44:36.021Z,0.00
2023-02-18T02:45:35.999Z,0.00
2023-02-18T02:46:36.004Z,0.00
2023-02-18T02:47:35.981Z,0.00
2023-02-18T02:48:35.969Z,0.00
2023-02-18T02:49:35.962Z,0.00
2023-02-18T02:50:35.955Z,0.00
2023-02-18T02:51:35.941Z,0.00
2023-02-18T02:52:35.926Z,0.00
2023-02-18T02:53:35.919Z,0.00
2023-02-18T02:54:35.934Z,0.00
2023-02-18T02:55:35.895Z,0.00
2023-02-18T02:56:35.900Z,0.00
2023-02-18T02:57:35.870Z,0.00
2023-02-18T02:58:35.861Z,0.00
2023-02-18T02:59:35.845Z,0.00
2023-02-18T03:00:35.847Z,0.00
2023-02-18T03:01:35.838Z,0.00
2023-02-18T03:02:35.826Z,0.00
2023-02-18T03:03:35.803Z,0.00
2023-02-18T03:04:35.803Z,0.00
2023-02-18T03:05:35.782Z,0.00
2023-02-18T03:06:35.793Z,0.00
2023-02-18T03:07:35.765Z,0.00
2023-02-18T03:08:35.753Z,0.00
2023-02-18T03:09:35.738Z,0.00
2023-02-18T03:10:35.733Z,0.00
2023-02-18T03:11:35.729Z,0.00
2023-02-18T03:12:35.710Z,0.00
2023-02-18T03:13:35.697Z,0.00
2023-02-18T03:14:35.691Z,0.00
2023-02-18T03:15:35.678Z,0.00
2023-02-18T03:16:35.714Z,0.00
2023-02-18T03:17:35.654Z,0.00
2023-02-18T03:18:35.643Z,0.00
2023-02-18T03:19:35.646Z,0.00
2023-02-18T03:20:35.628Z,0.00
2023-02-18T03:21:35.753Z,0.00
2023-02-18T03:22:35.598Z,0.00
2023-02-18T03:23:35.594Z,0.00
2023-02-18T03:24:35.577Z,0.00
2023-02-18T03:25:35.567Z,0.00
2023-02-18T03:26:35.573Z,0.00
2023-02-18T03:27:35.546Z,0.00
2023-02-18T03:28:35.532Z,0.00
2023-02-18T03:29:35.525Z,0.00
2023-02-18T03:30:35.560Z,0.00
2023-02-18T03:31:35.595Z,0.00
2023-02-18T03:32:35.500Z,0.00
2023-02-18T03:33:35.481Z,0.00
2023-02-18T03:34:35.469Z,0.00
2023-02-18T03:35:35.458Z,0.00
2023-02-18T03:36:35.453Z,0.00
2023-02-18T03:37:35.438Z,0.00
2023-02-18T03:38:35.439Z,0.00
2023-02-18T03:39:35.420Z,0.00
2023-02-18T03:40:35.398Z,0.00
2023-02-18T03:41:35.416Z,0.00
2023-02-18T03:42:35.378Z,0.00
2023-02-18T03:43:35.370Z,0.00
2023-02-18T03:44:35.372Z,0.00
2023-02-18T03:45:35.421Z,0.00
2023-02-18T03:46:35.356Z,0.00
2023-02-18T03:47:35.326Z,0.00
2023-02-18T03:48:35.310Z,0.00
2023-02-18T03:49:35.305Z,0.00
2023-02-18T03:50:35.291Z,0.00
2023-02-18T03:51:35.296Z,0.00
2023-02-18T03:52:35.276Z,0.00
2023-02-18T03:53:35.265Z,0.00
2023-02-18T03:54:35.245Z,0.00
2023-02-18T03:55:35.236Z,0.00
2023-02-18T03:56:35.232Z,0.00
2023-02-18T03:57:35.217Z,0.00
2023-02-18T03:58:35.215Z,0.00
2023-02-18T03:59:35.191Z,0.00
2023-02-18T04:00:35.173Z,0.00
2023-02-18T04:01:35.210Z,0.00
2023-02-18T04:02:35.152Z,0.00
2023-02-18T04:03:35.146Z,0.00
2023-02-18T04:04:35.198Z,0.00
2023-02-18T04:05:35.125Z,0.00
2023-02-18T04:06:35.282Z,0.00
2023-02-18T04:07:35.100Z,0.00
2023-02-18T04:08:35.089Z,0.00
2023-02-18T04:09:35.079Z,0.00
2023-02-18T04:10:35.062Z,0.00
2023-02-18T04:11:35.069Z,0.00
2023-02-18T04:12:35.044Z,0.00
2023-02-18T04:13:35.036Z,0.00
2023-02-18T04:14:35.030Z,0.00
2023-02-18T04:15:35.011Z,0.00
2023-02-18T04:16:35.031Z,0.00
2023-02-18T04:17:34.988Z,0.00
2023-02-18T04:18:34.977Z,0.00
2023-02-18T04:19:34.971Z,0.00
2023-02-18T04:20:34.951Z,0.00
2023-02-18T04:21:34.959Z,0.00
2023-02-18T04:22:34.933Z,0.00
2023-02-18T04:23:34.935Z,0.00
2023-02-18T04:24:34.912Z,0.00
2023-02-18T04:25:34.909Z,0.00
2023-02-18T04:26:34.902Z,0.00
2023-02-18T04:27:34.884Z,0.00
2023-02-18T04:28:34.867Z,0.00
2023-02-18T04:29:34.862Z,0.00
2023-02-18T04:30:34.979Z,0.00
2023-02-18T04:31:34.903Z,0.00
2023-02-18T04:32:34.822Z,0.00
2023-02-18T04:33:34.821Z,0.00
2023-02-18T04:34:34.809Z,0.00
2023-02-18T04:35:34.801Z,0.00
2023-02-18T04:36:34.809Z,0.00
2023-02-18T04:37:34.766Z,0.00
2023-02-18T04:38:34.766Z,0.00
2023-02-18T04:39:34.745Z,0.00
2023-02-18T04:40:34.740Z,0.00
2023-02-18T04:41:34.738Z,0.00
2023-02-18T04:42:34.721Z,0.00
2023-02-18T04:43:34.706Z,0.00
2023-02-18T04:44:34.701Z,0.00
2023-02-18T04:45:34.681Z,0.00
2023-02-18T04:46:34.769Z,0.00
2023-02-18T04:47:34.657Z,0.00
2023-02-18T04:48:34.650Z,0.00
2023-02-18T04:49:34.645Z,0.00
2023-02-18T04:50:34.631Z,0.00
2023-02-18T04:51:34.647Z,0.00
2023-02-18T04:52:34.604Z,0.00
2023-02-18T04:53:34.591Z,0.00
2023-02-18T04:54:34.588Z,0.00
2023-02-18T04:55:34.568Z,0.00
2023-02-18T04:56:34.575Z,0.00
2023-02-18T04:57:34.549Z,0.00
2023-02-18T04:58:34.543Z,0.00
2023-02-18T04:59:34.535Z,0.00
2023-02-18T05:00:34.524Z,0.00
2023-02-18T05:01:34.547Z,0.00
2023-02-18T05:02:34.500Z,0.00
2023-02-18T05:03:34.488Z,0.00
2023-02-18T05:04:34.501Z,0.00
2023-02-18T05:05:34.705Z,0.00
2023-02-18T05:06:34.467Z,0.00
2023-02-18T05:07:34.446Z,0.00
2023-02-18T05:08:34.435Z,0.00
2023-02-18T05:09:34.423Z,0.00
2023-02-18T05:10:34.414Z,0.00
2023-02-18T05:11:34.411Z,0.00
2023-02-18T05:12:34.475Z,0.00
2023-02-18T05:13:34.387Z,0.00
2023-02-18T05:14:34.374Z,0.00
2023-02-18T05:15:34.408Z,0.00
2023-02-18T05:16:34.359Z,0.00
2023-02-18T05:17:34.338Z,0.00
2023-02-18T05:18:34.532Z,0.00
2023-02-18T05:19:34.321Z,0.00
2023-02-18T05:20:34.308Z,0.00
2023-02-18T05:21:34.302Z,0.00
2023-02-18T05:22:34.284Z,0.00
2023-02-18T05:23:34.319Z,0.00
2023-02-18T05:24:34.294Z,0.00
2023-02-18T05:25:34.255Z,0.00
2023-02-18T05:26:34.249Z,0.00
2023-02-18T05:27:34.237Z,0.00
2023-02-18T05:28:34.218Z,0.00
2023-02-18T05:29:34.209Z,0.00
2023-02-18T05:30:34.297Z,0.00
2023-02-18T05:31:34.300Z,0.00
2023-02-18T05:32:34.184Z,0.00
2023-02-18T05:33:34.173Z,0.00
2023-02-18T05:34:34.154Z,0.00
2023-02-18T05:35:34.139Z,0.00
2023-02-18T05:36:34.139Z,0.00
2023-02-18T05:37:34.113Z,0.00
2023-02-18T05:38:34.114Z,0.00
2023-02-18T05:39:34.090Z,0.00
2023-02-18T05:40:34.092Z,0.00
2023-02-18T05:41:34.087Z,0.00
2023-02-18T05:42:34.069Z,0.00
2023-02-18T05:43:34.051Z,0.00
2023-02-18T05:44:34.042Z,0.00
2023-02-18T05:45:34.034Z,0.00
2023-02-18T05:46:34.107Z,0.00
2023-02-18T05:47:34.003Z,0.00
2023-02-18T05:48:33.997Z,0.00
2023-02-18T05:49:33.985Z,0.00
2023-02-18T05:50:33.974Z,0.00
2023-02-18T05:51:33.966Z,0.00
2023-02-18T05:52:33.957Z,0.00
2023-02-18T05:53:33.946Z,0.00
2023-02-18T05:54:33.936Z,0.00
2023-02-18T05:55:33.917Z,0.00
2023-02-18T05:56:33.919Z,0.00
2023-02-18T05:57:33.900Z,0.00
2023-02-18T05:58:33.885Z,0.00
2023-02-18T05:59:33.873Z,0.00
2023-02-18T06:00:33.870Z,0.00
2023-02-18T06:01:33.862Z,0.00
2023-02-18T06:02:33.886Z,0.00
2023-02-18T06:03:33.836Z,0.00
2023-02-18T06:04:33.828Z,0.00
2023-02-18T06:05:33.839Z,0.00
2023-02-18T06:06:33.811Z,0.00
2023-02-18T06:07:33.787Z,0.00
2023-02-18T06:08:33.778Z,0.00
2023-02-18T06:09:33.763Z,0.00
2023-02-18T06:10:34.057Z,0.00
2023-02-18T06:11:33.753Z,0.00
2023-02-18T06:12:33.760Z,0.00
2023-02-18T06:13:33.718Z,0.00
2023-02-18T06:14:33.729Z,0.00
2023-02-18T06:15:33.702Z,0.00
2023-02-18T06:16:33.698Z,0.00
2023-02-18T06:17:33.677Z,0.00
2023-02-18T06:18:33.676Z,0.00
2023-02-18T06:19:33.660Z,0.00
2023-02-18T06:20:33.651Z,0.00
2023-02-18T06:21:33.677Z,4.00
2023-02-18T06:22:33.624Z,4.00
2023-02-18T06:23:33.612Z,4.00
2023-02-18T06:24:33.603Z,0.00
2023-02-18T06:25:33.588Z,0.00
2023-02-18T06:26:33.592Z,4.00
2023-02-18T06:27:33.572Z,4.00
2023-02-18T06:28:33.560Z,8.00
2023-02-18T06:29:33.545Z,8.00
2023-02-18T06:30:33.621Z,8.00
2023-02-18T06:31:33.638Z,8.00
2023-02-18T06:32:33.512Z,8.00
2023-02-18T06:33:33.499Z,12.00
2023-02-18T06:34:33.491Z,16.00
2023-02-18T06:35:33.473Z,16.00
2023-02-18T06:36:33.478Z,20.00
2023-02-18T06:37:33.451Z,20.00
2023-02-18T06:38:33.456Z,24.00
2023-02-18T06:39:33.430Z,24.00
2023-02-18T06:40:33.425Z,24.00
2023-02-18T06:41:33.423Z,32.00
2023-02-18T06:42:33.404Z,32.00
2023-02-18T06:43:33.396Z,32.00
2023-02-18T06:44:33.379Z,36.00
2023-02-18T06:45:33.367Z,44.00
2023-02-18T06:46:33.411Z,48.00
2023-02-18T06:47:33.339Z,40.00
2023-02-18T06:48:33.336Z,52.00
2023-02-18T06:49:33.320Z,48.00
2023-02-18T06:50:33.312Z,48.00
2023-02-18T06:51:33.306Z,56.00
2023-02-18T06:52:33.297Z,60.00
2023-02-18T06:53:33.277Z,52.00
2023-02-18T06:54:33.267Z,60.00
2023-02-18T06:55:33.250Z,64.00
2023-02-18T06:56:33.266Z,60.00
2023-02-18T06:57:33.229Z,64.00
2023-02-18T06:58:33.222Z,64.00
2023-02-18T06:59:33.207Z,56.00
2023-02-18T07:00:33.384Z,76.00
2023-02-18T07:01:33.212Z,72.00
2023-02-18T07:02:33.195Z,64.00
2023-02-18T07:03:33.206Z,72.00
2023-02-18T07:04:33.158Z,92.00
2023-02-18T07:05:33.145Z,100.00
2023-02-18T07:06:33.135Z,124.00
2023-02-18T07:07:33.133Z,140.00
2023-02-18T07:08:33.123Z,128.00
2023-02-18T07:09:33.098Z,116.00
2023-02-18T07:10:33.095Z,128.00
2023-02-18T07:11:33.075Z,128.00
2023-02-18T07:12:33.080Z,140.00
2023-02-18T07:13:33.068Z,156.00
2023-02-18T07:14:33.053Z,136.00
2023-02-18T07:15:33.042Z,148.00
2023-02-18T07:16:33.070Z,116.00
2023-02-18T07:17:33.035Z,172.00
2023-02-18T07:18:33.008Z,172.00
2023-02-18T07:19:32.990Z,172.00
2023-02-18T07:20:32.985Z,148.00
2023-02-18T07:21:32.964Z,140.00
2023-02-18T07:22:32.969Z,140.00
2023-02-18T07:23:32.948Z,176.00
2023-02-18T07:24:32.939Z,200.00
2023-02-18T07:25:32.937Z,196.00
2023-02-18T07:26:32.921Z,220.00
2023-02-18T07:27:32.912Z,232.00
2023-02-18T07:28:32.896Z,252.00
2023-02-18T07:29:32.877Z,228.00
2023-02-18T07:30:32.891Z,252.00
2023-02-18T07:31:32.905Z,268.00
2023-02-18T07:32:32.855Z,312.00
2023-02-18T07:33:32.834Z,336.00
2023-02-18T07:34:32.828Z,328.00
2023-02-18T07:35:32.822Z,316.00
2023-02-18T07:36:32.808Z,352.00
2023-02-18T07:37:32.808Z,324.00
2023-02-18T07:38:32.783Z,276.00
2023-02-18T07:39:32.770Z,300.00
2023-02-18T07:40:32.763Z,324.00
2023-02-18T07:41:32.747Z,348.00
2023-02-18T07:42:32.751Z,336.00
2023-02-18T07:43:32.727Z,404.00
2023-02-18T07:44:32.719Z,420.00
2023-02-18T07:45:32.792Z,408.00
2023-02-18T07:46:32.699Z,448.00
2023-02-18T07:47:32.693Z,500.00
2023-02-18T07:48:32.673Z,452.00
2023-02-18T07:49:32.664Z,492.00
2023-02-18T07:50:32.659Z,512.00
2023-02-18T07:51:32.650Z,628.00
2023-02-18T07:52:32.646Z,596.00
2023-02-18T07:53:32.620Z,548.00
2023-02-18T07:54:32.611Z,652.00
2023-02-18T07:55:32.592Z,604.00
2023-02-18T07:56:32.588Z,840.00
2023-02-18T07:57:32.582Z,760.00
2023-02-18T07:58:32.577Z,900.00
2023-02-18T07:59:32.550Z,788.00
2023-02-18T08:00:32.547Z,792.00
2023-02-18T08:01:32.528Z,724.00
2023-02-18T08:02:32.532Z,696.00
2023-02-18T08:03:32.506Z,884.00
2023-02-18T08:04:32.585Z,884.00
2023-02-18T08:05:32.488Z,736.00
2023-02-18T08:06:32.484Z,852.00
2023-02-18T08:07:32.473Z,816.00
2023-02-18T08:08:33.678Z,832.00
2023-02-18T08:09:32.440Z,788.00
2023-02-18T08:10:32.437Z,720.00
2023-02-18T08:11:32.421Z,900.00
2023-02-18T08:12:32.422Z,812.00
2023-02-18T08:13:32.401Z,736.00
2023-02-18T08:14:32.393Z,776.00
2023-02-18T08:15:32.384Z,632.00
2023-02-18T08:16:32.405Z,604.00
2023-02-18T08:17:32.383Z,708.00
2023-02-18T08:18:32.355Z,636.00
2023-02-18T08:19:32.341Z,796.00
2023-02-18T08:20:32.332Z,636.00
2023-02-18T08:21:32.460Z,800.00
2023-02-18T08:22:32.316Z,748.00
2023-02-18T08:23:32.294Z,904.00
2023-02-18T08:24:32.286Z,788.00
2023-02-18T08:25:32.273Z,912.00
2023-02-18T08:26:32.276Z,828.00
2023-02-18T08:27:32.258Z,712.00
2023-02-18T08:28:32.241Z,808.00
2023-02-18T08:29:32.234Z,724.00
2023-02-18T08:30:32.318Z,616.00
2023-02-18T08:31:32.261Z,620.00
2023-02-18T08:32:32.214Z,592.00
2023-02-18T08:33:32.194Z,648.00
2023-02-18T08:34:32.179Z,620.00
2023-02-18T08:35:32.160Z,624.00
2023-02-18T08:36:32.156Z,656.00
2023-02-18T08:37:52.497Z,564.00
2023-02-18T08:38:32.136Z,684.00
2023-02-18T08:39:32.125Z,676.00
2023-02-18T08:40:32.109Z,608.00
2023-02-18T08:41:32.096Z,616.00
2023-02-18T08:42:32.105Z,528.00
2023-02-18T08:43:32.100Z,560.00
2023-02-18T08:44:32.066Z,540.00
2023-02-18T08:45:32.813Z,524.00
2023-02-18T08:46:33.859Z,584.00
2023-02-18T08:48:17.599Z,544.00
2023-02-18T08:48:32.031Z,528.00
2023-02-18T08:49:32.020Z,604.00
2023-02-18T08:50:32.004Z,752.00
2023-02-18T08:51:32.004Z,756.00
2023-02-18T08:52:31.992Z,780.00
2023-02-18T08:53:31.962Z,868.00
2023-02-18T08:54:31.961Z,700.00
2023-02-18T08:55:31.942Z,752.00
2023-02-18T08:56:31.935Z,688.00
2023-02-18T08:57:31.925Z,756.00
2023-02-18T08:58:31.931Z,784.00
2023-02-18T08:59:31.897Z,644.00
2023-02-18T09:00:31.894Z,684.00
2023-02-18T09:01:32.056Z,728.00
2023-02-18T09:02:31.868Z,816.00
2023-02-18T09:03:31.864Z,640.00
2023-02-18T09:04:31.931Z,692.00
2023-02-18T09:05:31.828Z,708.00
2023-02-18T09:06:31.828Z,640.00
2023-02-18T09:07:31.810Z,676.00
2023-02-18T09:08:31.813Z,844.00
2023-02-18T09:09:31.789Z,676.00
2023-02-18T09:10:31.779Z,616.00
2023-02-18T09:11:31.780Z,792.00
2023-02-18T09:12:31.761Z,1012.00
2023-02-18T09:13:31.754Z,1060.00
2023-02-18T09:14:31.737Z,1016.00
2023-02-18T09:15:31.788Z,1496.00
2023-02-18T09:16:31.715Z,1152.00
2023-02-18T09:17:31.706Z,1180.00
2023-02-18T09:18:31.719Z,1220.00
2023-02-18T09:19:31.677Z,1032.00
2023-02-18T09:20:31.671Z,1268.00
2023-02-18T09:21:31.756Z,972.00
2023-02-18T09:22:31.647Z,1428.00
2023-02-18T09:23:31.643Z,1380.00
2023-02-18T09:24:31.623Z,1252.00
2023-02-18T09:25:31.611Z,1264.00
2023-02-18T09:26:31.601Z,1192.00
2023-02-18T09:27:31.585Z,1324.00
2023-02-18T09:28:31.592Z,1340.00
2023-02-18T09:29:31.568Z,1268.00
2023-02-18T09:30:31.634Z,1576.00
2023-02-18T09:31:31.602Z,1380.00
2023-02-18T09:32:35.622Z,1124.00
2023-02-18T09:33:31.528Z,1044.00
2023-02-18T09:34:31.511Z,1180.00
2023-02-18T09:35:31.502Z,1236.00
2023-02-18T09:36:31.498Z,1036.00
2023-02-18T09:37:31.475Z,1056.00
2023-02-18T09:38:31.482Z,1160.00
2023-02-18T09:39:31.453Z,1016.00
2023-02-18T09:40:31.446Z,1120.00
2023-02-18T09:41:31.438Z,1208.00
2023-02-18T09:42:31.446Z,1148.00
2023-02-18T09:43:31.423Z,972.00
2023-02-18T09:44:31.399Z,1124.00
2023-02-18T09:45:31.385Z,972.00
2023-02-18T09:46:31.418Z,1052.00
2023-02-18T09:47:31.364Z,1428.00
2023-02-18T09:48:31.369Z,1484.00
2023-02-18T09:49:31.341Z,1520.00
2023-02-18T09:50:31.337Z,1444.00
2023-02-18T09:51:31.322Z,1432.00
2023-02-18T09:52:31.313Z,1204.00
2023-02-18T09:53:31.332Z,1276.00
2023-02-18T09:54:31.291Z,1704.00
2023-02-18T09:55:31.281Z,1584.00
2023-02-18T09:56:31.269Z,1640.00
2023-02-18T09:57:31.254Z,1800.00
2023-02-18T09:58:31.257Z,1880.00
2023-02-18T09:59:31.231Z,1832.00
2023-02-18T10:00:31.229Z,1696.00
2023-02-18T10:01:31.250Z,2040.00
2023-02-18T10:02:31.203Z,1936.00
2023-02-18T10:03:31.196Z,2296.00
2023-02-18T10:04:31.216Z,1928.00
2023-02-18T10:05:31.176Z,1876.00
2023-02-18T10:06:31.160Z,1576.00
2023-02-18T10:07:31.159Z,1288.00
2023-02-18T10:08:31.161Z,1264.00
2023-02-18T10:09:31.123Z,1284.00
2023-02-18T10:10:31.117Z,1192.00
2023-02-18T10:11:31.100Z,1012.00
2023-02-18T10:12:31.098Z,1096.00
2023-02-18T10:13:31.092Z,1136.00
2023-02-18T10:14:31.095Z,1228.00
2023-02-18T10:15:31.057Z,1516.00
2023-02-18T10:16:31.083Z,2048.00
2023-02-18T10:17:31.039Z,2072.00
2023-02-18T10:19:31.015Z,1920.00
2023-02-18T10:20:31.020Z,1704.00
2023-02-18T10:21:30.995Z,1188.00
2023-02-18T10:22:30.993Z,1360.00
2023-02-18T10:23:30.982Z,1188.00
2023-02-18T10:24:30.976Z,1904.00
2023-02-18T10:25:30.947Z,1712.00
2023-02-18T10:26:30.947Z,1512.00
2023-02-18T10:27:30.934Z,1932.00
2023-02-18T10:28:30.932Z,1720.00
2023-02-18T10:29:30.916Z,1264.00
2023-02-18T10:30:30.961Z,1484.00
2023-02-18T10:31:31.056Z,1420.00
2023-02-18T10:32:38.008Z,1516.00
2023-02-18T10:38:02.206Z,1812.00
2023-02-18T10:39:03.230Z,1816.00
2023-02-18T10:40:03.187Z,1804.00
2023-02-18T10:41:03.183Z,1936.00
2023-02-18T10:42:03.174Z,1796.00
2023-02-18T10:43:03.158Z,1712.00
2023-02-18T10:44:03.150Z,1540.00
2023-02-18T10:45:03.146Z,1276.00
2023-02-18T10:46:03.125Z,1348.00
2023-02-18T10:47:03.113Z,1784.00
2023-02-18T10:48:03.100Z,1676.00
2023-02-18T10:49:03.106Z,1520.00
2023-02-18T10:50:03.085Z,1336.00
2023-02-18T10:51:03.087Z,1428.00
2023-02-18T10:52:03.051Z,1548.00
2023-02-18T10:53:03.048Z,1676.00
2023-02-18T10:54:03.039Z,1448.00
2023-02-18T10:55:03.021Z,2168.00
2023-02-18T10:56:03.070Z,2448.00
2023-02-18T10:57:03.000Z,2404.00
2023-02-18T10:58:02.985Z,2428.00
2023-02-18T10:59:02.989Z,2276.00
2023-02-18T11:00:02.967Z,2016.00
2023-02-18T11:01:02.962Z,1852.00
2023-02-18T11:02:02.953Z,1568.00
2023-02-18T11:03:02.934Z,1392.00
2023-02-18T11:04:02.932Z,1480.00
2023-02-18T11:05:03.028Z,2032.00
2023-02-18T11:06:02.898Z,2856.00
2023-02-18T11:07:02.902Z,3124.00
2023-02-18T11:08:02.870Z,2792.00
2023-02-18T11:09:02.887Z,1960.00
2023-02-18T11:10:02.850Z,2092.00
2023-02-18T11:11:02.850Z,2264.00
2023-02-18T11:12:08.213Z,2800.00
2023-02-18T11:13:02.829Z,2708.00
2023-02-18T11:14:02.818Z,2492.00
2023-02-18T11:15:02.800Z,2276.00
2023-02-18T11:16:02.808Z,2216.00
2023-02-18T11:17:02.785Z,2140.00
2023-02-18T11:18:02.763Z,1976.00
2023-02-18T11:19:02.766Z,2556.00
2023-02-18T11:20:02.754Z,4004.00
2023-02-18T11:21:02.733Z,3620.00
2023-02-18T11:22:02.719Z,3892.00
2023-02-18T11:23:02.739Z,2820.00
2023-02-18T11:24:02.703Z,2772.00
2023-02-18T11:25:02.689Z,3768.00
2023-02-18T11:26:02.673Z,3340.00
2023-02-18T11:27:02.667Z,2700.00
2023-02-18T11:28:02.661Z,2092.00
2023-02-18T11:29:02.654Z,3116.00
2023-02-18T11:30:02.703Z,3540.00
2023-02-18T11:31:02.698Z,3604.00
2023-02-18T11:32:02.745Z,2440.00
2023-02-18T11:33:02.599Z,2000.00
2023-02-18T11:34:02.592Z,2392.00
2023-02-18T11:35:02.577Z,2400.00
2023-02-18T11:36:02.563Z,2004.00
2023-02-18T11:37:02.555Z,2020.00
2023-02-18T11:38:02.549Z,2312.00
2023-02-18T11:39:02.540Z,2740.00
2023-02-18T11:40:02.515Z,2492.00
2023-02-18T11:41:02.515Z,2180.00
2023-02-18T11:42:02.495Z,2220.00
2023-02-18T11:43:02.484Z,1548.00
2023-02-18T11:44:02.484Z,1980.00
2023-02-18T11:45:05.168Z,2244.00
2023-02-18T11:46:02.456Z,1972.00
2023-02-18T11:47:02.459Z,2416.00
2023-02-18T11:48:02.434Z,2832.00
2023-02-18T11:49:02.430Z,2036.00
2023-02-18T11:50:02.432Z,1648.00
2023-02-18T11:51:02.404Z,1732.00
2023-02-18T11:52:02.387Z,2556.00
2023-02-18T11:53:02.385Z,2352.00
2023-02-18T11:54:02.386Z,2156.00
2023-02-18T11:55:02.362Z,2028.00
2023-02-18T11:56:02.341Z,2224.00
2023-02-18T11:57:02.379Z,1980.00
2023-02-18T11:58:02.324Z,1896.00
2023-02-18T12:02:37.849Z,1520.00
2023-02-18T12:03:38.817Z,1540.00
2023-02-18T12:04:38.785Z,1724.00
2023-02-18T12:05:38.781Z,1696.00
2023-02-18T12:06:38.750Z,1404.00
2023-02-18T12:07:38.743Z,1520.00
2023-02-18T12:08:38.731Z,1356.00
2023-02-18T12:09:38.741Z,992.00
2023-02-18T12:10:38.710Z,1068.00
2023-02-18T12:11:38.705Z,1192.00
2023-02-18T12:12:38.687Z,1260.00
2023-02-18T12:13:38.684Z,912.00
2023-02-18T12:14:38.673Z,788.00
2023-02-18T12:15:38.664Z,1276.00
2023-02-18T12:16:38.708Z,1460.00
2023-02-18T12:17:38.634Z,1376.00
2023-02-18T12:18:40.461Z,1444.00
2023-02-18T12:19:38.621Z,1584.00
2023-02-18T12:20:38.601Z,1644.00
2023-02-18T12:21:38.591Z,1720.00
2023-02-18T12:22:38.577Z,1708.00
2023-02-18T12:23:38.573Z,2236.00
2023-02-18T12:24:38.563Z,1932.00
2023-02-18T12:25:38.552Z,1980.00
2023-02-18T12:26:38.532Z,1624.00
2023-02-18T12:27:38.524Z,1192.00
2023-02-18T12:28:38.516Z,992.00
2023-02-18T12:29:38.515Z,936.00
2023-02-18T12:30:38.489Z,1024.00
2023-02-18T12:31:38.547Z,1032.00
2023-02-18T12:32:38.463Z,1412.00
2023-02-18T12:33:38.472Z,1448.00
2023-02-18T12:34:38.457Z,2040.00
2023-02-18T12:35:38.441Z,2380.00
2023-02-18T12:36:38.433Z,1812.00
2023-02-18T12:37:38.414Z,1464.00
2023-02-18T12:38:38.399Z,1660.00
2023-02-18T12:39:38.402Z,1312.00
2023-02-18T12:40:38.392Z,1068.00
2023-02-18T12:41:38.374Z,944.00
2023-02-18T12:42:38.354Z,876.00
2023-02-18T12:43:38.371Z,680.00
2023-02-18T12:44:38.352Z,728.00
2023-02-18T12:45:38.351Z,600.00
2023-02-18T12:46:38.310Z,740.00
2023-02-18T12:47:38.301Z,800.00
2023-02-18T12:48:38.290Z,1132.00
2023-02-18T12:49:38.280Z,712.00
2023-02-18T12:50:38.271Z,576.00
2023-02-18T12:51:38.261Z,504.00
2023-02-18T12:52:38.267Z,504.00
2023-02-18T12:53:38.264Z,476.00
2023-02-18T12:54:38.226Z,504.00
2023-02-18T12:55:38.230Z,796.00
2023-02-18T12:56:38.199Z,572.00
2023-02-18T12:57:38.196Z,488.00